Douglas Lake, Canada
Current Conditions -  °F | °C
As of 1:12 AM on Wednesday 26 Nov 2014 (Local Time) from CYLW Reporting Station
Light Snow Light Snow  
Wind Chill: 26°   Ceiling: 1500
Heat Index: 32°   Visibility: 5mi
Dew Point: 32°   Wind: 6mph
Humidity: 100%   Direction: 350°N
Pressure: 30.2"   Gusts: NA
Location:  50.15°N, 120.18°W
Report Text: CYLW 260912Z AUTO 35005KT 5SM -SN FEW008 OVC015 00/00 A3020 RMK ICG SLP242
Loading
Personal Weather Stations






























Interactive Weather Map New forecast layout! Learn more

10-Day Weather Forecast

Advertisements
Track Severe Weather on mobile